sensor_id;sensor_type;location;lat;lon;timestamp;temperature;humidity
2190;DHT22;1101;51.056;7.262;2023-03-21T00:00:44;8.90;99.90
2190;DHT22;1101;51.056;7.262;2023-03-21T00:03:13;8.90;99.90
2190;DHT22;1101;51.056;7.262;2023-03-21T00:05:42;8.90;99.90
2190;DHT22;1101;51.056;7.262;2023-03-21T00:08:15;8.90;99.90
2190;DHT22;1101;51.056;7.262;2023-03-21T00:10:44;8.90;99.90
2190;DHT22;1101;51.056;7.262;2023-03-21T00:13:13;8.90;99.90
2190;DHT22;1101;51.056;7.262;2023-03-21T00:15:42;8.90;99.90
2190;DHT22;1101;51.056;7.262;2023-03-21T00:18:41;8.90;99.90
2190;DHT22;1101;51.056;7.262;2023-03-21T00:21:13;8.90;99.90
2190;DHT22;1101;51.056;7.262;2023-03-21T00:24:01;8.90;99.90
2190;DHT22;1101;51.056;7.262;2023-03-21T00:26:31;8.80;99.90
2190;DHT22;1101;51.056;7.262;2023-03-21T00:28:58;8.90;99.90
2190;DHT22;1101;51.056;7.262;2023-03-21T00:31:26;8.80;99.90
2190;DHT22;1101;51.056;7.262;2023-03-21T00:33:54;8.80;99.90
2190;DHT22;1101;51.056;7.262;2023-03-21T00:36:22;8.80;99.90
2190;DHT22;1101;51.056;7.262;2023-03-21T00:38:51;8.80;99.90
2190;DHT22;1101;51.056;7.262;2023-03-21T00:41:19;8.80;99.90
2190;DHT22;1101;51.056;7.262;2023-03-21T00:44:08;8.80;99.90
2190;DHT22;1101;51.056;7.262;2023-03-21T00:46:37;8.80;99.90
2190;DHT22;1101;51.056;7.262;2023-03-21T00:49:20;8.90;99.90
2190;DHT22;1101;51.056;7.262;2023-03-21T00:51:47;8.90;99.90
2190;DHT22;1101;51.056;7.262;2023-03-21T00:54:17;8.90;99.90
2190;DHT22;1101;51.056;7.262;2023-03-21T00:56:45;8.90;99.90
2190;DHT22;1101;51.056;7.262;2023-03-21T00:59:14;8.90;99.90
2190;DHT22;1101;51.056;7.262;2023-03-21T01:01:42;8.90;99.90
2190;DHT22;1101;51.056;7.262;2023-03-21T01:04:13;8.90;99.90
2190;DHT22;1101;51.056;7.262;2023-03-21T01:06:42;8.90;99.90
2190;DHT22;1101;51.056;7.262;2023-03-21T01:09:12;8.80;99.90
2190;DHT22;1101;51.056;7.262;2023-03-21T01:11:41;8.80;99.90
2190;DHT22;1101;51.056;7.262;2023-03-21T01:14:09;8.80;99.90
2190;DHT22;1101;51.056;7.262;2023-03-21T01:16:51;8.80;99.90
2190;DHT22;1101;51.056;7.262;2023-03-21T01:19:21;8.80;99.90
2190;DHT22;1101;51.056;7.262;2023-03-21T01:22:10;8.80;99.90
2190;DHT22;1101;51.056;7.262;2023-03-21T01:24:37;8.80;99.90
2190;DHT22;1101;51.056;7.262;2023-03-21T01:27:18;8.80;99.90
2190;DHT22;1101;51.056;7.262;2023-03-21T01:29:46;8.80;99.90
2190;DHT22;1101;51.056;7.262;2023-03-21T01:32:15;8.80;99.90
2190;DHT22;1101;51.056;7.262;2023-03-21T01:34:43;8.80;99.90
2190;DHT22;1101;51.056;7.262;2023-03-21T01:37:10;8.80;99.90
2190;DHT22;1101;51.056;7.262;2023-03-21T01:39:38;8.80;99.90
2190;DHT22;1101;51.056;7.262;2023-03-21T01:42:08;8.80;99.90
2190;DHT22;1101;51.056;7.262;2023-03-21T01:44:51;8.80;99.90
2190;DHT22;1101;51.056;7.262;2023-03-21T01:47:20;8.80;99.90
2190;DHT22;1101;51.056;7.262;2023-03-21T01:49:50;8.80;99.90
2190;DHT22;1101;51.056;7.262;2023-03-21T01:52:20;8.80;99.90
2190;DHT22;1101;51.056;7.262;2023-03-21T01:55:03;8.80;99.90
2190;DHT22;1101;51.056;7.262;2023-03-21T01:57:37;8.80;99.90
2190;DHT22;1101;51.056;7.262;2023-03-21T02:00:22;8.80;99.90
2190;DHT22;1101;51.056;7.262;2023-03-21T02:02:52;8.80;99.90
2190;DHT22;1101;51.056;7.262;2023-03-21T02:05:40;8.80;99.90
2190;DHT22;1101;51.056;7.262;2023-03-21T02:08:10;8.80;99.90
2190;DHT22;1101;51.056;7.262;2023-03-21T02:10:42;8.80;99.90
2190;DHT22;1101;51.056;7.262;2023-03-21T02:13:10;8.80;99.90
2190;DHT22;1101;51.056;7.262;2023-03-21T02:15:40;8.80;99.90
2190;DHT22;1101;51.056;7.262;2023-03-21T02:18:14;8.80;99.90
2190;DHT22;1101;51.056;7.262;2023-03-21T02:20:58;8.80;99.90
2190;DHT22;1101;51.056;7.262;2023-03-21T02:23:56;8.80;99.90
2190;DHT22;1101;51.056;7.262;2023-03-21T02:26:53;8.80;99.90
2190;DHT22;1101;51.056;7.262;2023-03-21T02:32:35;8.80;99.90
2190;DHT22;1101;51.056;7.262;2023-03-21T02:39:04;8.80;99.90
2190;DHT22;1101;51.056;7.262;2023-03-21T02:41:39;8.80;99.90
2190;DHT22;1101;51.056;7.262;2023-03-21T02:44:18;8.80;99.90
2190;DHT22;1101;51.056;7.262;2023-03-21T02:46:51;8.80;99.90
2190;DHT22;1101;51.056;7.262;2023-03-21T02:49:34;8.80;99.90
2190;DHT22;1101;51.056;7.262;2023-03-21T02:52:10;8.80;99.90
2190;DHT22;1101;51.056;7.262;2023-03-21T02:54:56;8.80;99.90
2190;DHT22;1101;51.056;7.262;2023-03-21T02:57:25;8.80;99.90
2190;DHT22;1101;51.056;7.262;2023-03-21T03:00:10;8.80;99.90
2190;DHT22;1101;51.056;7.262;2023-03-21T03:02:43;8.80;99.90
2190;DHT22;1101;51.056;7.262;2023-03-21T03:05:14;8.80;99.90
2190;DHT22;1101;51.056;7.262;2023-03-21T03:07:59;8.80;99.90
2190;DHT22;1101;51.056;7.262;2023-03-21T03:10:54;8.80;99.90
2190;DHT22;1101;51.056;7.262;2023-03-21T03:13:34;8.80;99.90
2190;DHT22;1101;51.056;7.262;2023-03-21T03:16:12;8.80;99.90
2190;DHT22;1101;51.056;7.262;2023-03-21T03:18:49;8.70;99.90
2190;DHT22;1101;51.056;7.262;2023-03-21T03:21:22;8.80;99.90
2190;DHT22;1101;51.056;7.262;2023-03-21T03:23:53;8.70;99.90
2190;DHT22;1101;51.056;7.262;2023-03-21T03:26:27;8.70;99.90
2190;DHT22;1101;51.056;7.262;2023-03-21T03:29:00;8.70;99.90
2190;DHT22;1101;51.056;7.262;2023-03-21T03:31:32;8.70;99.90
2190;DHT22;1101;51.056;7.262;2023-03-21T03:34:06;8.70;99.90
2190;DHT22;1101;51.056;7.262;2023-03-21T03:36:38;8.70;99.90
2190;DHT22;1101;51.056;7.262;2023-03-21T03:39:08;8.70;99.90
2190;DHT22;1101;51.056;7.262;2023-03-21T03:41:42;8.70;99.90
2190;DHT22;1101;51.056;7.262;2023-03-21T03:44:31;8.70;99.90
2190;DHT22;1101;51.056;7.262;2023-03-21T03:47:02;8.70;99.90
2190;DHT22;1101;51.056;7.262;2023-03-21T03:49:35;8.70;99.90
2190;DHT22;1101;51.056;7.262;2023-03-21T03:52:07;8.70;99.90
2190;DHT22;1101;51.056;7.262;2023-03-21T03:54:39;8.70;99.90
2190;DHT22;1101;51.056;7.262;2023-03-21T03:57:09;8.70;99.90
2190;DHT22;1101;51.056;7.262;2023-03-21T03:59:40;8.70;99.90
2190;DHT22;1101;51.056;7.262;2023-03-21T04:02:09;8.70;99.90
2190;DHT22;1101;51.056;7.262;2023-03-21T04:04:37;8.70;99.90
2190;DHT22;1101;51.056;7.262;2023-03-21T04:07:05;8.70;99.90
2190;DHT22;1101;51.056;7.262;2023-03-21T04:09:33;8.70;99.90
2190;DHT22;1101;51.056;7.262;2023-03-21T04:12:11;8.60;99.90
2190;DHT22;1101;51.056;7.262;2023-03-21T04:14:39;8.60;99.90
2190;DHT22;1101;51.056;7.262;2023-03-21T04:17:13;8.60;99.90
2190;DHT22;1101;51.056;7.262;2023-03-21T04:19:41;8.50;99.90
2190;DHT22;1101;51.056;7.262;2023-03-21T04:22:09;8.50;99.90
2190;DHT22;1101;51.056;7.262;2023-03-21T04:24:38;8.50;99.90
2190;DHT22;1101;51.056;7.262;2023-03-21T04:27:06;8.50;99.90
2190;DHT22;1101;51.056;7.262;2023-03-21T04:29:35;8.40;99.90
2190;DHT22;1101;51.056;7.262;2023-03-21T04:32:04;8.40;99.90
2190;DHT22;1101;51.056;7.262;2023-03-21T04:34:45;8.40;99.90
2190;DHT22;1101;51.056;7.262;2023-03-21T04:37:16;8.40;99.90
2190;DHT22;1101;51.056;7.262;2023-03-21T04:39:44;8.40;99.90
2190;DHT22;1101;51.056;7.262;2023-03-21T04:42:13;8.40;99.90
2190;DHT22;1101;51.056;7.262;2023-03-21T04:44:43;8.40;99.90
2190;DHT22;1101;51.056;7.262;2023-03-21T04:47:10;8.30;99.90
2190;DHT22;1101;51.056;7.262;2023-03-21T04:49:41;8.30;99.90
2190;DHT22;1101;51.056;7.262;2023-03-21T04:52:09;8.30;99.90
2190;DHT22;1101;51.056;7.262;2023-03-21T04:54:36;8.40;99.90
2190;DHT22;1101;51.056;7.262;2023-03-21T04:57:04;8.40;99.90
2190;DHT22;1101;51.056;7.262;2023-03-21T04:59:32;8.40;99.90
2190;DHT22;1101;51.056;7.262;2023-03-21T05:02:01;8.40;99.90
2190;DHT22;1101;51.056;7.262;2023-03-21T05:04:29;8.40;99.90
2190;DHT22;1101;51.056;7.262;2023-03-21T05:06:57;8.40;99.90
2190;DHT22;1101;51.056;7.262;2023-03-21T05:09:25;8.40;99.90
2190;DHT22;1101;51.056;7.262;2023-03-21T05:11:53;8.40;99.90
2190;DHT22;1101;51.056;7.262;2023-03-21T05:14:23;8.40;99.90
2190;DHT22;1101;51.056;7.262;2023-03-21T05:16:52;8.40;99.90
2190;DHT22;1101;51.056;7.262;2023-03-21T05:19:25;8.40;99.90
2190;DHT22;1101;51.056;7.262;2023-03-21T05:22:01;8.40;99.90
2190;DHT22;1101;51.056;7.262;2023-03-21T05:24:30;8.40;99.90
2190;DHT22;1101;51.056;7.262;2023-03-21T05:26:59;8.30;99.90
2190;DHT22;1101;51.056;7.262;2023-03-21T05:29:28;8.40;99.90
2190;DHT22;1101;51.056;7.262;2023-03-21T05:31:57;8.30;99.90
2190;DHT22;1101;51.056;7.262;2023-03-21T05:34:27;8.40;99.90
2190;DHT22;1101;51.056;7.262;2023-03-21T05:36:56;8.40;99.90
2190;DHT22;1101;51.056;7.262;2023-03-21T05:39:24;8.40;99.90
2190;DHT22;1101;51.056;7.262;2023-03-21T05:41:51;8.40;99.90
2190;DHT22;1101;51.056;7.262;2023-03-21T05:44:19;8.40;99.90
2190;DHT22;1101;51.056;7.262;2023-03-21T05:46:47;8.40;99.90
2190;DHT22;1101;51.056;7.262;2023-03-21T05:49:14;8.40;99.90
2190;DHT22;1101;51.056;7.262;2023-03-21T05:51:44;8.40;99.90
2190;DHT22;1101;51.056;7.262;2023-03-21T05:54:11;8.40;99.90
2190;DHT22;1101;51.056;7.262;2023-03-21T05:56:42;8.40;99.90
2190;DHT22;1101;51.056;7.262;2023-03-21T05:59:10;8.50;99.90
2190;DHT22;1101;51.056;7.262;2023-03-21T06:01:37;8.50;99.90
2190;DHT22;1101;51.056;7.262;2023-03-21T06:04:05;8.50;99.90
2190;DHT22;1101;51.056;7.262;2023-03-21T06:06:33;8.50;99.90
2190;DHT22;1101;51.056;7.262;2023-03-21T06:09:02;8.50;99.90
2190;DHT22;1101;51.056;7.262;2023-03-21T06:11:31;8.50;99.90
2190;DHT22;1101;51.056;7.262;2023-03-21T06:13:59;8.50;99.90
2190;DHT22;1101;51.056;7.262;2023-03-21T06:16:28;8.50;99.90
2190;DHT22;1101;51.056;7.262;2023-03-21T06:18:56;8.60;99.90
2190;DHT22;1101;51.056;7.262;2023-03-21T06:21:23;8.60;99.90
2190;DHT22;1101;51.056;7.262;2023-03-21T06:23:52;8.60;99.90
2190;DHT22;1101;51.056;7.262;2023-03-21T06:26:21;8.60;99.90
2190;DHT22;1101;51.056;7.262;2023-03-21T06:28:49;8.60;99.90
2190;DHT22;1101;51.056;7.262;2023-03-21T06:31:18;8.60;99.90
2190;DHT22;1101;51.056;7.262;2023-03-21T06:33:48;8.60;99.90
2190;DHT22;1101;51.056;7.262;2023-03-21T06:36:17;8.60;99.90
2190;DHT22;1101;51.056;7.262;2023-03-21T06:38:45;8.60;99.90
2190;DHT22;1101;51.056;7.262;2023-03-21T06:41:14;8.60;99.90
2190;DHT22;1101;51.056;7.262;2023-03-21T06:43:44;8.60;99.90
2190;DHT22;1101;51.056;7.262;2023-03-21T06:46:13;8.60;99.90
2190;DHT22;1101;51.056;7.262;2023-03-21T06:48:41;8.60;99.90
2190;DHT22;1101;51.056;7.262;2023-03-21T06:51:11;8.60;99.90
2190;DHT22;1101;51.056;7.262;2023-03-21T06:53:39;8.60;99.90
2190;DHT22;1101;51.056;7.262;2023-03-21T06:56:08;8.60;99.90
2190;DHT22;1101;51.056;7.262;2023-03-21T06:58:37;8.60;99.90
2190;DHT22;1101;51.056;7.262;2023-03-21T07:01:06;8.60;99.90
2190;DHT22;1101;51.056;7.262;2023-03-21T07:03:35;8.60;99.90
2190;DHT22;1101;51.056;7.262;2023-03-21T07:06:04;8.60;99.90
2190;DHT22;1101;51.056;7.262;2023-03-21T07:08:32;8.60;99.90
2190;DHT22;1101;51.056;7.262;2023-03-21T07:11:00;8.60;99.90
2190;DHT22;1101;51.056;7.262;2023-03-21T07:13:28;8.70;99.90
2190;DHT22;1101;51.056;7.262;2023-03-21T07:15:56;8.70;99.90
2190;DHT22;1101;51.056;7.262;2023-03-21T07:18:25;8.70;99.90
2190;DHT22;1101;51.056;7.262;2023-03-21T07:20:52;8.70;99.90
2190;DHT22;1101;51.056;7.262;2023-03-21T07:23:22;8.70;99.90
2190;DHT22;1101;51.056;7.262;2023-03-21T07:25:52;8.70;99.90
2190;DHT22;1101;51.056;7.262;2023-03-21T07:28:20;8.80;99.90
2190;DHT22;1101;51.056;7.262;2023-03-21T07:30:52;8.80;99.90
2190;DHT22;1101;51.056;7.262;2023-03-21T07:33:20;8.80;99.90
2190;DHT22;1101;51.056;7.262;2023-03-21T07:35:50;8.80;99.90
2190;DHT22;1101;51.056;7.262;2023-03-21T07:38:19;8.90;99.90
2190;DHT22;1101;51.056;7.262;2023-03-21T07:40:48;8.90;99.90
2190;DHT22;1101;51.056;7.262;2023-03-21T07:43:16;8.90;99.90
2190;DHT22;1101;51.056;7.262;2023-03-21T07:45:49;8.90;99.90
2190;DHT22;1101;51.056;7.262;2023-03-21T07:48:16;9.00;99.90
2190;DHT22;1101;51.056;7.262;2023-03-21T07:50:45;9.00;99.90
2190;DHT22;1101;51.056;7.262;2023-03-21T07:53:14;9.00;99.90
2190;DHT22;1101;51.056;7.262;2023-03-21T07:55:41;9.00;99.90
2190;DHT22;1101;51.056;7.262;2023-03-21T07:58:09;9.10;99.90
2190;DHT22;1101;51.056;7.262;2023-03-21T08:00:37;9.10;99.90
2190;DHT22;1101;51.056;7.262;2023-03-21T08:03:05;9.10;99.90
2190;DHT22;1101;51.056;7.262;2023-03-21T08:05:34;9.10;99.90
2190;DHT22;1101;51.056;7.262;2023-03-21T08:08:04;9.10;99.90
2190;DHT22;1101;51.056;7.262;2023-03-21T08:10:33;9.10;99.90
2190;DHT22;1101;51.056;7.262;2023-03-21T08:13:01;9.20;99.90
2190;DHT22;1101;51.056;7.262;2023-03-21T08:15:29;9.20;99.90
2190;DHT22;1101;51.056;7.262;2023-03-21T08:17:58;9.30;99.90
2190;DHT22;1101;51.056;7.262;2023-03-21T08:20:26;9.40;99.90
2190;DHT22;1101;51.056;7.262;2023-03-21T08:22:54;9.40;99.90
2190;DHT22;1101;51.056;7.262;2023-03-21T08:25:22;9.40;99.90
2190;DHT22;1101;51.056;7.262;2023-03-21T08:27:51;9.40;99.90
2190;DHT22;1101;51.056;7.262;2023-03-21T08:30:20;9.40;99.90
2190;DHT22;1101;51.056;7.262;2023-03-21T08:32:49;9.40;99.90
2190;DHT22;1101;51.056;7.262;2023-03-21T08:35:18;9.40;99.90
2190;DHT22;1101;51.056;7.262;2023-03-21T08:37:46;9.40;99.90
2190;DHT22;1101;51.056;7.262;2023-03-21T08:40:16;9.40;99.90
2190;DHT22;1101;51.056;7.262;2023-03-21T08:42:44;9.40;99.90
2190;DHT22;1101;51.056;7.262;2023-03-21T08:45:15;9.40;99.90
2190;DHT22;1101;51.056;7.262;2023-03-21T08:47:44;9.30;99.90
2190;DHT22;1101;51.056;7.262;2023-03-21T08:50:14;9.30;99.90
2190;DHT22;1101;51.056;7.262;2023-03-21T08:52:43;9.30;99.90
2190;DHT22;1101;51.056;7.262;2023-03-21T08:55:11;9.30;99.90
2190;DHT22;1101;51.056;7.262;2023-03-21T08:57:40;9.30;99.90
2190;DHT22;1101;51.056;7.262;2023-03-21T09:00:10;9.30;99.90
2190;DHT22;1101;51.056;7.262;2023-03-21T09:02:42;9.30;99.90
2190;DHT22;1101;51.056;7.262;2023-03-21T09:05:10;9.30;99.90
2190;DHT22;1101;51.056;7.262;2023-03-21T09:07:39;9.30;99.90
2190;DHT22;1101;51.056;7.262;2023-03-21T09:10:09;9.30;99.90
2190;DHT22;1101;51.056;7.262;2023-03-21T09:12:48;9.30;99.90
2190;DHT22;1101;51.056;7.262;2023-03-21T09:15:16;9.30;99.90
2190;DHT22;1101;51.056;7.262;2023-03-21T09:17:48;9.30;99.90
2190;DHT22;1101;51.056;7.262;2023-03-21T09:20:18;9.40;99.90
2190;DHT22;1101;51.056;7.262;2023-03-21T09:22:51;9.40;99.90
2190;DHT22;1101;51.056;7.262;2023-03-21T09:25:19;9.40;99.90
2190;DHT22;1101;51.056;7.262;2023-03-21T09:27:47;9.40;99.90
2190;DHT22;1101;51.056;7.262;2023-03-21T09:30:16;9.40;99.90
2190;DHT22;1101;51.056;7.262;2023-03-21T09:32:45;9.40;99.90
2190;DHT22;1101;51.056;7.262;2023-03-21T09:35:15;9.40;99.90
2190;DHT22;1101;51.056;7.262;2023-03-21T09:37:44;9.40;99.90
2190;DHT22;1101;51.056;7.262;2023-03-21T09:40:18;9.50;99.90
2190;DHT22;1101;51.056;7.262;2023-03-21T09:42:55;9.50;99.90
2190;DHT22;1101;51.056;7.262;2023-03-21T09:45:31;9.50;99.90
2190;DHT22;1101;51.056;7.262;2023-03-21T09:48:04;9.60;99.90
2190;DHT22;1101;51.056;7.262;2023-03-21T09:50:36;9.60;99.90
2190;DHT22;1101;51.056;7.262;2023-03-21T09:53:10;9.60;99.90
2190;DHT22;1101;51.056;7.262;2023-03-21T09:55:41;9.60;99.90
2190;DHT22;1101;51.056;7.262;2023-03-21T09:58:18;9.60;99.90
2190;DHT22;1101;51.056;7.262;2023-03-21T10:00:55;9.60;99.90
2190;DHT22;1101;51.056;7.262;2023-03-21T10:03:29;9.60;99.90
2190;DHT22;1101;51.056;7.262;2023-03-21T10:06:04;9.60;99.90
2190;DHT22;1101;51.056;7.262;2023-03-21T10:08:35;9.70;99.90
2190;DHT22;1101;51.056;7.262;2023-03-21T10:11:10;9.70;99.90
2190;DHT22;1101;51.056;7.262;2023-03-21T10:13:43;9.70;99.90
2190;DHT22;1101;51.056;7.262;2023-03-21T10:16:14;9.70;99.90
2190;DHT22;1101;51.056;7.262;2023-03-21T10:18:43;9.70;99.90
2190;DHT22;1101;51.056;7.262;2023-03-21T10:21:18;9.80;99.90
2190;DHT22;1101;51.056;7.262;2023-03-21T10:24:10;9.80;99.90
2190;DHT22;1101;51.056;7.262;2023-03-21T10:26:38;9.80;99.90
2190;DHT22;1101;51.056;7.262;2023-03-21T10:29:08;9.80;99.90
2190;DHT22;1101;51.056;7.262;2023-03-21T10:31:36;9.80;99.90
2190;DHT22;1101;51.056;7.262;2023-03-21T10:34:11;9.80;99.90
2190;DHT22;1101;51.056;7.262;2023-03-21T10:36:41;9.90;99.90
2190;DHT22;1101;51.056;7.262;2023-03-21T10:39:19;9.90;99.90
2190;DHT22;1101;51.056;7.262;2023-03-21T10:41:48;9.90;99.90
2190;DHT22;1101;51.056;7.262;2023-03-21T10:44:17;9.90;99.90
2190;DHT22;1101;51.056;7.262;2023-03-21T10:46:51;9.90;99.90
2190;DHT22;1101;51.056;7.262;2023-03-21T10:49:19;9.90;99.90
2190;DHT22;1101;51.056;7.262;2023-03-21T10:51:51;9.90;99.90
2190;DHT22;1101;51.056;7.262;2023-03-21T10:54:21;9.90;99.90
2190;DHT22;1101;51.056;7.262;2023-03-21T10:56:56;9.90;99.90
2190;DHT22;1101;51.056;7.262;2023-03-21T10:59:27;9.90;99.90
2190;DHT22;1101;51.056;7.262;2023-03-21T11:01:56;9.90;99.90
2190;DHT22;1101;51.056;7.262;2023-03-21T11:04:26;10.00;99.90
2190;DHT22;1101;51.056;7.262;2023-03-21T11:06:58;10.00;99.90
2190;DHT22;1101;51.056;7.262;2023-03-21T11:09:44;10.00;99.90
2190;DHT22;1101;51.056;7.262;2023-03-21T11:12:15;10.00;99.90
2190;DHT22;1101;51.056;7.262;2023-03-21T11:14:44;10.00;99.90
2190;DHT22;1101;51.056;7.262;2023-03-21T11:17:24;10.00;99.90
2190;DHT22;1101;51.056;7.262;2023-03-21T11:19:57;10.10;99.90
2190;DHT22;1101;51.056;7.262;2023-03-21T11:22:29;10.10;99.90
2190;DHT22;1101;51.056;7.262;2023-03-21T11:24:59;10.20;99.90
2190;DHT22;1101;51.056;7.262;2023-03-21T11:27:28;10.20;99.90
2190;DHT22;1101;51.056;7.262;2023-03-21T11:29:57;10.30;99.90
2190;DHT22;1101;51.056;7.262;2023-03-21T11:32:32;10.30;99.90
2190;DHT22;1101;51.056;7.262;2023-03-21T11:35:03;10.30;99.90
2190;DHT22;1101;51.056;7.262;2023-03-21T11:37:38;10.40;99.90
2190;DHT22;1101;51.056;7.262;2023-03-21T11:40:18;10.40;99.90
2190;DHT22;1101;51.056;7.262;2023-03-21T11:42:48;10.40;99.90
2190;DHT22;1101;51.056;7.262;2023-03-21T11:45:21;10.40;99.90
2190;DHT22;1101;51.056;7.262;2023-03-21T11:47:51;10.50;99.90
2190;DHT22;1101;51.056;7.262;2023-03-21T11:50:26;10.50;99.90
2190;DHT22;1101;51.056;7.262;2023-03-21T11:53:06;10.50;99.90
2190;DHT22;1101;51.056;7.262;2023-03-21T11:55:43;10.50;99.90
2190;DHT22;1101;51.056;7.262;2023-03-21T11:58:25;10.50;99.90
2190;DHT22;1101;51.056;7.262;2023-03-21T12:01:02;10.50;99.90
2190;DHT22;1101;51.056;7.262;2023-03-21T12:04:02;10.50;99.90
2190;DHT22;1101;51.056;7.262;2023-03-21T12:06:34;10.60;99.90
2190;DHT22;1101;51.056;7.262;2023-03-21T12:09:16;10.60;99.90
2190;DHT22;1101;51.056;7.262;2023-03-21T12:11:57;10.60;99.90
2190;DHT22;1101;51.056;7.262;2023-03-21T12:14:31;10.60;99.90
2190;DHT22;1101;51.056;7.262;2023-03-21T12:17:08;10.50;99.90
2190;DHT22;1101;51.056;7.262;2023-03-21T12:19:53;10.50;99.90
2190;DHT22;1101;51.056;7.262;2023-03-21T12:22:28;10.50;99.90
2190;DHT22;1101;51.056;7.262;2023-03-21T12:25:04;10.50;99.90
2190;DHT22;1101;51.056;7.262;2023-03-21T12:27:42;10.40;99.90
2190;DHT22;1101;51.056;7.262;2023-03-21T12:30:32;10.40;99.90
2190;DHT22;1101;51.056;7.262;2023-03-21T12:36:09;10.30;99.90
2190;DHT22;1101;51.056;7.262;2023-03-21T12:38:45;10.30;99.90
2190;DHT22;1101;51.056;7.262;2023-03-21T12:41:22;10.20;99.90
2190;DHT22;1101;51.056;7.262;2023-03-21T12:43:55;10.20;99.90
2190;DHT22;1101;51.056;7.262;2023-03-21T12:46:28;10.20;99.90
2190;DHT22;1101;51.056;7.262;2023-03-21T12:49:01;10.20;99.90
2190;DHT22;1101;51.056;7.262;2023-03-21T12:51:31;10.10;99.90
2190;DHT22;1101;51.056;7.262;2023-03-21T12:54:08;10.10;99.90
2190;DHT22;1101;51.056;7.262;2023-03-21T12:56:46;10.10;99.90
2190;DHT22;1101;51.056;7.262;2023-03-21T12:59:22;10.10;99.90
2190;DHT22;1101;51.056;7.262;2023-03-21T13:01:54;10.10;99.90
2190;DHT22;1101;51.056;7.262;2023-03-21T13:04:37;10.10;99.90
2190;DHT22;1101;51.056;7.262;2023-03-21T13:07:08;10.10;99.90
2190;DHT22;1101;51.056;7.262;2023-03-21T13:09:39;10.10;99.90
2190;DHT22;1101;51.056;7.262;2023-03-21T13:12:23;10.10;99.90
2190;DHT22;1101;51.056;7.262;2023-03-21T13:15:10;10.10;99.90
2190;DHT22;1101;51.056;7.262;2023-03-21T13:17:54;10.10;99.90
2190;DHT22;1101;51.056;7.262;2023-03-21T13:20:27;10.20;99.90
2190;DHT22;1101;51.056;7.262;2023-03-21T13:22:57;10.20;99.90
2190;DHT22;1101;51.056;7.262;2023-03-21T13:25:29;10.20;99.90
2190;DHT22;1101;51.056;7.262;2023-03-21T13:28:03;10.20;99.90
2190;DHT22;1101;51.056;7.262;2023-03-21T13:30:32;10.20;99.90
2190;DHT22;1101;51.056;7.262;2023-03-21T13:33:05;10.20;99.90
2190;DHT22;1101;51.056;7.262;2023-03-21T13:35:35;10.30;99.90
2190;DHT22;1101;51.056;7.262;2023-03-21T13:38:10;10.30;99.90
2190;DHT22;1101;51.056;7.262;2023-03-21T13:40:43;10.30;99.90
2190;DHT22;1101;51.056;7.262;2023-03-21T13:43:34;10.30;99.90
2190;DHT22;1101;51.056;7.262;2023-03-21T13:46:08;10.30;99.90
2190;DHT22;1101;51.056;7.262;2023-03-21T13:48:54;10.20;99.90
2190;DHT22;1101;51.056;7.262;2023-03-21T13:51:42;10.20;99.90
2190;DHT22;1101;51.056;7.262;2023-03-21T13:54:21;10.20;99.90
2190;DHT22;1101;51.056;7.262;2023-03-21T13:56:52;10.20;99.90
2190;DHT22;1101;51.056;7.262;2023-03-21T13:59:38;10.10;99.90
2190;DHT22;1101;51.056;7.262;2023-03-21T14:02:28;10.20;99.90
2190;DHT22;1101;51.056;7.262;2023-03-21T14:05:00;10.10;99.90
2190;DHT22;1101;51.056;7.262;2023-03-21T14:07:33;10.10;99.90
2190;DHT22;1101;51.056;7.262;2023-03-21T14:10:05;10.10;99.90
2190;DHT22;1101;51.056;7.262;2023-03-21T14:12:38;10.20;99.90
2190;DHT22;1101;51.056;7.262;2023-03-21T14:15:17;10.20;99.90
2190;DHT22;1101;51.056;7.262;2023-03-21T14:17:50;10.20;99.90
2190;DHT22;1101;51.056;7.262;2023-03-21T14:20:21;10.20;99.90
2190;DHT22;1101;51.056;7.262;2023-03-21T14:22:49;10.20;99.90
2190;DHT22;1101;51.056;7.262;2023-03-21T14:25:20;10.30;99.90
2190;DHT22;1101;51.056;7.262;2023-03-21T14:27:53;10.30;99.90
2190;DHT22;1101;51.056;7.262;2023-03-21T14:30:25;10.30;99.90
2190;DHT22;1101;51.056;7.262;2023-03-21T14:32:54;10.40;99.90
2190;DHT22;1101;51.056;7.262;2023-03-21T14:35:24;10.40;99.90
2190;DHT22;1101;51.056;7.262;2023-03-21T14:37:59;10.40;99.90
2190;DHT22;1101;51.056;7.262;2023-03-21T14:40:28;10.50;99.90
2190;DHT22;1101;51.056;7.262;2023-03-21T14:42:56;10.50;99.90
2190;DHT22;1101;51.056;7.262;2023-03-21T14:45:28;10.50;99.90
2190;DHT22;1101;51.056;7.262;2023-03-21T14:47:58;10.50;99.90
2190;DHT22;1101;51.056;7.262;2023-03-21T14:50:31;10.50;99.90
2190;DHT22;1101;51.056;7.262;2023-03-21T14:53:01;10.50;99.90
2190;DHT22;1101;51.056;7.262;2023-03-21T14:55:29;10.50;99.90
2190;DHT22;1101;51.056;7.262;2023-03-21T14:57:57;10.50;99.90
2190;DHT22;1101;51.056;7.262;2023-03-21T15:00:28;10.50;99.90
2190;DHT22;1101;51.056;7.262;2023-03-21T15:02:58;10.60;99.90
2190;DHT22;1101;51.056;7.262;2023-03-21T15:05:28;10.60;99.90
2190;DHT22;1101;51.056;7.262;2023-03-21T15:07:59;10.60;99.90
2190;DHT22;1101;51.056;7.262;2023-03-21T15:10:30;10.60;99.90
2190;DHT22;1101;51.056;7.262;2023-03-21T15:12:59;10.60;99.90
2190;DHT22;1101;51.056;7.262;2023-03-21T15:15:30;10.70;99.90
2190;DHT22;1101;51.056;7.262;2023-03-21T15:18:04;10.70;99.90
2190;DHT22;1101;51.056;7.262;2023-03-21T15:20:35;10.70;99.90
2190;DHT22;1101;51.056;7.262;2023-03-21T15:23:08;10.70;99.90
2190;DHT22;1101;51.056;7.262;2023-03-21T15:25:38;10.70;99.90
2190;DHT22;1101;51.056;7.262;2023-03-21T15:28:08;10.80;99.90
2190;DHT22;1101;51.056;7.262;2023-03-21T15:30:46;10.80;99.90
2190;DHT22;1101;51.056;7.262;2023-03-21T15:33:15;10.90;99.90
2190;DHT22;1101;51.056;7.262;2023-03-21T15:35:48;10.90;99.90
2190;DHT22;1101;51.056;7.262;2023-03-21T15:38:27;10.90;99.90
2190;DHT22;1101;51.056;7.262;2023-03-21T15:41:26;11.00;99.90
2190;DHT22;1101;51.056;7.262;2023-03-21T15:44:01;11.00;99.90
2190;DHT22;1101;51.056;7.262;2023-03-21T15:46:39;11.00;99.90
2190;DHT22;1101;51.056;7.262;2023-03-21T15:49:10;11.00;99.90
2190;DHT22;1101;51.056;7.262;2023-03-21T15:51:47;11.00;99.90
2190;DHT22;1101;51.056;7.262;2023-03-21T15:54:19;11.10;99.90
2190;DHT22;1101;51.056;7.262;2023-03-21T15:56:52;11.10;99.90
2190;DHT22;1101;51.056;7.262;2023-03-21T15:59:24;11.00;99.90
2190;DHT22;1101;51.056;7.262;2023-03-21T16:01:55;11.00;99.90
2190;DHT22;1101;51.056;7.262;2023-03-21T16:04:22;11.00;99.90
2190;DHT22;1101;51.056;7.262;2023-03-21T16:06:56;11.00;99.90
2190;DHT22;1101;51.056;7.262;2023-03-21T16:09:24;11.00;99.90
2190;DHT22;1101;51.056;7.262;2023-03-21T16:11:53;11.00;99.90
2190;DHT22;1101;51.056;7.262;2023-03-21T16:14:22;11.00;99.90
2190;DHT22;1101;51.056;7.262;2023-03-21T16:16:55;11.00;99.90
2190;DHT22;1101;51.056;7.262;2023-03-21T16:19:24;11.00;99.90
2190;DHT22;1101;51.056;7.262;2023-03-21T16:21:55;11.00;99.90
2190;DHT22;1101;51.056;7.262;2023-03-21T16:24:22;11.00;99.90
2190;DHT22;1101;51.056;7.262;2023-03-21T16:26:50;11.00;99.90
2190;DHT22;1101;51.056;7.262;2023-03-21T16:29:19;11.00;99.90
2190;DHT22;1101;51.056;7.262;2023-03-21T16:31:48;11.00;99.90
2190;DHT22;1101;51.056;7.262;2023-03-21T16:34:17;11.00;99.90
2190;DHT22;1101;51.056;7.262;2023-03-21T16:36:45;11.00;99.90
2190;DHT22;1101;51.056;7.262;2023-03-21T16:39:16;10.90;99.90
2190;DHT22;1101;51.056;7.262;2023-03-21T16:41:45;10.90;99.90
2190;DHT22;1101;51.056;7.262;2023-03-21T16:44:13;10.90;99.90
2190;DHT22;1101;51.056;7.262;2023-03-21T16:46:41;10.90;99.90
2190;DHT22;1101;51.056;7.262;2023-03-21T16:49:18;10.90;99.90
2190;DHT22;1101;51.056;7.262;2023-03-21T16:51:46;10.90;99.90
2190;DHT22;1101;51.056;7.262;2023-03-21T16:54:14;10.90;99.90